Accueil
METAR-TAF:

METAR-TAF

Aéroports :

Aérodrome de Granges

Granges, Suisse

latitude: 47-10-53N, longitude: 007-24-59E, altitude: 430 m

Observation

Le bulletin a été fait il y a 5 minutes, à 09:20 UTC
Vent 13 kt de est
Température 7°C
Humidité 57%
Pression 1020 hPa
Visibilité 10 km ou plus
Quelques nuages à une hauteur de 3200 ft

METAR: LSZG 170920Z 08013KT 9999 FEW032 07/M01 Q1020 NOSIG

Heure: 11:25 (09:25 UTC)

Prévision

Le bulletin a été fait il y a 1 heure et 0 minutes, à 08:25 UTC
Prévision valable du 17 à 09 UTC au 17 à 18 UTC
Vent 12 kt de est
Visibilité 10 km ou plus
Quelques nuages à une hauteur de 2500 ft

TAF: LSZG 170825Z 1709/1718 08012KT 9999 FEW025

Observations et prévisions météorologiques de plus de 4000 aéroports (messages METAR et TAF).

Les stations disponibles sont représentées par des disques jaunes et rouges sur la carte.

Passer la souris dessus pour voir le nom de la station.

Cliquer dessus pour voir les observations et prévisions météorologiques.

Pour changer de carte: cliquez sur les boutons verts avec une croix noire pour zoomer, sur le bouton vert avec un tiret pour effectuer un zoom arrière, ou sur les flèches vertes pour les cartes adjacentes.


METAR-TAF: